createdAt,value
2018-01-03T00:01:06.365Z,18.14
2018-01-03T00:04:08.238Z,18.13
2018-01-03T00:07:10.104Z,18.13
2018-01-03T00:10:12.386Z,18.11
2018-01-03T00:13:14.394Z,18.11
2018-01-03T00:16:16.279Z,18.11
2018-01-03T00:19:18.158Z,18.10
2018-01-03T00:22:20.035Z,18.08
2018-01-03T00:25:21.939Z,18.07
2018-01-03T00:28:23.798Z,18.05
2018-01-03T00:31:25.681Z,18.05
2018-01-03T00:34:27.757Z,18.05
2018-01-03T00:37:29.627Z,18.04
2018-01-03T00:40:31.513Z,18.03
2018-01-03T00:43:33.402Z,18.02
2018-01-03T00:46:35.863Z,17.99
2018-01-03T00:49:37.768Z,17.98
2018-01-03T00:52:39.658Z,17.98
2018-01-03T00:55:41.518Z,17.99
2018-01-03T00:58:43.708Z,17.95
2018-01-03T01:01:45.770Z,17.95
2018-01-03T01:04:47.983Z,17.94
2018-01-03T01:07:49.847Z,17.93
2018-01-03T01:10:51.763Z,17.93
2018-01-03T01:13:53.616Z,17.91
2018-01-03T01:16:55.513Z,17.91
2018-01-03T01:19:57.498Z,17.88
2018-01-03T01:22:59.383Z,17.88
2018-01-03T01:26:01.250Z,17.87
2018-01-03T01:29:03.135Z,17.87
2018-01-03T01:32:04.998Z,17.85
2018-01-03T01:35:06.887Z,17.85
2018-01-03T01:38:08.755Z,17.83
2018-01-03T01:41:10.641Z,17.83
2018-01-03T01:44:12.522Z,17.83
2018-01-03T01:47:14.403Z,17.83
2018-01-03T01:50:16.283Z,17.81
2018-01-03T01:53:18.175Z,17.80
2018-01-03T01:56:20.034Z,17.81
2018-01-03T01:59:21.914Z,17.78
2018-01-03T02:02:23.787Z,17.78
2018-01-03T02:05:25.655Z,17.76
2018-01-03T02:08:27.543Z,17.76
2018-01-03T02:11:29.454Z,17.76
2018-01-03T02:14:31.298Z,17.73
2018-01-03T02:17:33.191Z,17.73
2018-01-03T02:20:35.083Z,17.73
2018-01-03T02:23:37.348Z,17.72
2018-01-03T02:26:39.202Z,17.71
2018-01-03T02:29:41.080Z,17.71
2018-01-03T02:32:42.951Z,17.69
2018-01-03T02:35:44.844Z,17.66
2018-01-03T02:38:46.692Z,17.68
2018-01-03T02:41:48.563Z,17.67
2018-01-03T02:44:50.427Z,17.67
2018-01-03T02:47:52.323Z,17.66
2018-01-03T02:50:54.188Z,17.66
2018-01-03T02:53:56.075Z,17.66
2018-01-03T02:56:57.967Z,17.65
2018-01-03T02:59:59.871Z,17.65
2018-01-03T03:03:01.735Z,17.64
2018-01-03T03:06:03.627Z,17.64
2018-01-03T03:09:05.499Z,17.63
2018-01-03T03:12:07.364Z,17.62
2018-01-03T03:15:09.255Z,17.62
2018-01-03T03:18:11.119Z,17.61
2018-01-03T03:21:13.014Z,17.58
2018-01-03T03:24:14.883Z,17.59
2018-01-03T03:27:16.773Z,17.60
2018-01-03T03:30:18.633Z,17.59
2018-01-03T03:33:20.510Z,17.58
2018-01-03T03:36:22.366Z,17.57
2018-01-03T03:39:24.253Z,17.57
2018-01-03T03:42:26.122Z,17.57
2018-01-03T03:45:28.009Z,17.56
2018-01-03T03:48:29.891Z,17.55
2018-01-03T03:51:31.751Z,17.55
2018-01-03T03:54:33.629Z,17.54
2018-01-03T03:57:35.482Z,17.53
2018-01-03T04:00:37.368Z,17.54
2018-01-03T04:03:39.227Z,17.54
2018-01-03T04:06:41.115Z,17.53
2018-01-03T04:09:42.983Z,17.51
2018-01-03T04:12:44.868Z,17.50
2018-01-03T04:15:46.719Z,17.50
2018-01-03T04:18:48.599Z,17.51
2018-01-03T04:21:50.462Z,17.48
2018-01-03T04:24:52.557Z,17.47
2018-01-03T04:27:54.416Z,17.47
2018-01-03T04:30:56.291Z,17.46
2018-01-03T04:33:58.179Z,17.41
2018-01-03T04:37:00.135Z,17.47
2018-01-03T04:40:02.011Z,17.47
2018-01-03T04:43:03.875Z,17.46
2018-01-03T04:46:05.763Z,17.45
2018-01-03T04:49:07.674Z,17.45
2018-01-03T04:52:09.527Z,17.44
2018-01-03T04:55:11.418Z,17.43
2018-01-03T04:58:13.275Z,17.44
2018-01-03T05:01:15.154Z,17.42
2018-01-03T05:04:17.015Z,17.42
2018-01-03T05:07:18.899Z,17.42
2018-01-03T05:10:20.773Z,17.43
2018-01-03T05:13:22.643Z,17.45
2018-01-03T05:16:24.515Z,17.48
2018-01-03T05:19:26.423Z,17.51
2018-01-03T05:22:28.262Z,17.54
2018-01-03T05:25:30.119Z,17.57
2018-01-03T05:28:32.290Z,17.62
2018-01-03T05:31:34.171Z,17.67
2018-01-03T05:34:36.117Z,17.71
2018-01-03T05:37:37.923Z,17.77
2018-01-03T05:40:39.811Z,17.80
2018-01-03T05:43:41.683Z,17.83
2018-01-03T05:46:43.599Z,17.87
2018-01-03T05:49:45.480Z,17.91
2018-01-03T05:52:47.347Z,17.96
2018-01-03T05:55:49.230Z,17.99
2018-01-03T05:58:51.099Z,18.03
2018-01-03T06:01:52.973Z,18.05
2018-01-03T06:04:54.860Z,18.09
2018-01-03T06:07:56.753Z,18.11
2018-01-03T06:10:58.627Z,18.14
2018-01-03T06:14:00.751Z,18.15
2018-01-03T06:17:02.779Z,18.17
2018-01-03T06:20:04.651Z,18.20
2018-01-03T06:23:06.615Z,18.23
2018-01-03T06:26:08.494Z,18.25
2018-01-03T06:29:10.348Z,18.27
2018-01-03T06:32:12.236Z,18.31
2018-01-03T06:35:14.115Z,18.33
2018-01-03T06:38:16.001Z,18.35
2018-01-03T06:41:17.875Z,18.36
2018-01-03T06:44:19.744Z,18.36
2018-01-03T06:47:21.878Z,18.37
2018-01-03T06:50:23.729Z,18.39
2018-01-03T06:53:25.622Z,18.40
2018-01-03T06:56:27.487Z,18.43
2018-01-03T06:59:29.395Z,18.45
2018-01-03T07:02:31.259Z,18.45
2018-01-03T07:05:33.155Z,18.45
2018-01-03T07:08:35.020Z,18.46
2018-01-03T07:11:37.188Z,18.47
2018-01-03T07:14:39.056Z,18.45
2018-01-03T07:17:40.934Z,18.48
2018-01-03T07:20:42.859Z,18.51
2018-01-03T07:23:44.731Z,18.52
2018-01-03T07:26:46.704Z,18.53
2018-01-03T07:29:48.551Z,18.56
2018-01-03T07:32:50.570Z,18.59
2018-01-03T07:35:52.431Z,18.60
2018-01-03T07:38:54.310Z,18.61
2018-01-03T07:41:56.183Z,18.64
2018-01-03T07:44:58.071Z,18.64
2018-01-03T07:47:59.947Z,18.69
2018-01-03T07:51:01.834Z,18.70
2018-01-03T07:54:03.687Z,18.71
2018-01-03T07:57:05.571Z,18.70
2018-01-03T08:00:07.461Z,18.69
2018-01-03T08:03:09.371Z,18.72
2018-01-03T08:06:11.223Z,18.71
2018-01-03T08:09:13.107Z,18.72
2018-01-03T08:12:14.958Z,18.74
2018-01-03T08:15:16.871Z,18.73
2018-01-03T08:18:18.737Z,18.75
2018-01-03T08:21:20.631Z,18.74
2018-01-03T08:24:22.491Z,18.75
2018-01-03T08:27:24.371Z,18.77
2018-01-03T08:30:26.238Z,18.78
2018-01-03T08:33:28.105Z,18.79
2018-01-03T08:36:29.951Z,18.80
2018-01-03T08:39:31.815Z,18.80
2018-01-03T08:42:33.672Z,18.82
2018-01-03T08:45:35.595Z,18.84
2018-01-03T08:48:37.758Z,18.84
2018-01-03T08:51:39.643Z,18.84
2018-01-03T08:54:41.522Z,18.84
2018-01-03T08:57:43.383Z,18.84
2018-01-03T09:00:45.280Z,18.84
2018-01-03T09:03:48.238Z,18.89
2018-01-03T09:06:50.123Z,18.91
2018-01-03T09:09:51.989Z,18.97
2018-01-03T09:12:53.919Z,18.97
2018-01-03T09:15:55.771Z,18.99
2018-01-03T09:18:57.667Z,18.98
2018-01-03T09:21:59.538Z,18.99
2018-01-03T09:25:01.414Z,19.01
2018-01-03T09:28:03.308Z,19.03
2018-01-03T09:31:05.175Z,19.03
2018-01-03T09:34:07.031Z,19.01
2018-01-03T09:37:08.968Z,18.96
2018-01-03T09:40:10.823Z,18.98
2018-01-03T09:43:12.712Z,19.00
2018-01-03T09:46:14.637Z,19.04
2018-01-03T09:49:16.452Z,19.03
2018-01-03T09:52:18.343Z,19.07
2018-01-03T09:55:20.239Z,19.11
2018-01-03T09:58:22.177Z,19.15
2018-01-03T10:01:24.060Z,19.15
2018-01-03T10:04:25.924Z,19.16
2018-01-03T10:07:27.991Z,19.19
2018-01-03T10:10:29.859Z,19.20
2018-01-03T10:13:31.748Z,19.22
2018-01-03T10:16:33.614Z,19.23
2018-01-03T10:19:35.815Z,19.23
2018-01-03T10:22:37.695Z,18.82
2018-01-03T10:25:39.751Z,19.24
2018-01-03T10:28:41.878Z,19.24
2018-01-03T10:31:43.795Z,19.25
2018-01-03T10:34:45.730Z,19.25
2018-01-03T10:37:47.802Z,19.26
2018-01-03T10:40:49.719Z,19.25
2018-01-03T10:43:51.583Z,19.24
2018-01-03T10:46:53.459Z,19.22
2018-01-03T10:49:55.344Z,19.21
2018-01-03T10:52:57.431Z,19.19
2018-01-03T10:55:59.504Z,19.18
2018-01-03T10:59:01.368Z,19.18
2018-01-03T11:02:03.254Z,19.17
2018-01-03T11:05:05.136Z,19.17
2018-01-03T11:08:07.233Z,19.18
2018-01-03T11:11:09.110Z,19.17
2018-01-03T11:14:10.971Z,19.17
2018-01-03T11:17:13.026Z,19.16
2018-01-03T11:20:14.888Z,19.17
2018-01-03T11:23:16.759Z,19.15
2018-01-03T11:26:18.599Z,19.15
2018-01-03T11:29:20.519Z,19.15
2018-01-03T11:32:22.374Z,19.15
2018-01-03T11:35:24.271Z,19.15
2018-01-03T11:38:26.140Z,19.16
2018-01-03T11:41:28.039Z,19.15
2018-01-03T11:44:29.940Z,19.14
2018-01-03T11:47:31.810Z,19.15
2018-01-03T11:50:33.715Z,19.14
2018-01-03T11:53:35.579Z,19.13
2018-01-03T11:56:37.464Z,19.13
2018-01-03T11:59:39.311Z,19.11
2018-01-03T12:02:41.196Z,19.10
2018-01-03T12:05:43.063Z,19.09
2018-01-03T12:08:44.938Z,19.07
2018-01-03T12:11:46.829Z,19.07
2018-01-03T12:14:48.744Z,19.04
2018-01-03T12:17:50.596Z,19.00
2018-01-03T12:20:52.482Z,19.05
2018-01-03T12:23:54.326Z,19.07
2018-01-03T12:26:56.203Z,19.08
2018-01-03T12:29:58.054Z,19.09
2018-01-03T12:33:00.244Z,19.05
2018-01-03T12:36:02.071Z,19.03
2018-01-03T12:39:04.143Z,19.06
2018-01-03T12:42:06.043Z,19.07
2018-01-03T12:48:31.949Z,19.12
2018-01-03T12:51:33.803Z,19.12
2018-01-03T12:54:35.691Z,19.13
2018-01-03T12:57:37.567Z,19.13
2018-01-03T13:00:39.442Z,19.13
2018-01-03T13:03:41.298Z,19.13
2018-01-03T13:06:43.243Z,19.14
2018-01-03T13:09:45.139Z,19.12
2018-01-03T13:12:47.309Z,19.08
2018-01-03T13:15:49.623Z,18.99
2018-01-03T13:18:51.499Z,19.01
2018-01-03T13:21:53.358Z,19.06
2018-01-03T13:24:55.241Z,19.08
2018-01-03T13:27:57.227Z,19.11
2018-01-03T13:30:59.083Z,19.13
2018-01-03T13:34:01.280Z,19.14
2018-01-03T13:37:03.207Z,19.15
2018-01-03T13:40:05.127Z,19.17
2018-01-03T13:43:07.094Z,19.17
2018-01-03T13:46:09.310Z,19.19
2018-01-03T13:49:11.199Z,19.20
2018-01-03T13:52:13.091Z,19.19
2018-01-03T13:55:15.023Z,19.19
2018-01-03T13:58:16.987Z,19.19
2018-01-03T14:01:18.909Z,19.19
2018-01-03T14:04:20.779Z,19.20
2018-01-03T14:07:22.699Z,19.20
2018-01-03T14:10:24.567Z,19.20
2018-01-03T14:13:26.619Z,19.21
2018-01-03T14:16:28.570Z,19.21
2018-01-03T14:19:30.499Z,19.21
2018-01-03T14:22:32.483Z,19.22
2018-01-03T14:25:34.395Z,19.22
2018-01-03T14:28:36.291Z,19.22
2018-01-03T14:31:38.175Z,19.21
2018-01-03T14:34:40.126Z,19.22
2018-01-03T14:37:43.015Z,19.24
2018-01-03T14:40:44.988Z,19.22
2018-01-03T14:43:46.911Z,19.22
2018-01-03T14:46:49.106Z,19.23
2018-01-03T14:49:50.971Z,19.23
2018-01-03T14:52:53.119Z,19.23
2018-01-03T14:55:55.079Z,19.23
2018-01-03T14:58:57.001Z,19.27
2018-01-03T15:01:58.975Z,19.23
2018-01-03T15:05:01.118Z,19.23
2018-01-03T15:08:02.984Z,19.23
2018-01-03T15:11:04.919Z,19.23
2018-01-03T15:14:06.912Z,19.23
2018-01-03T15:17:09.219Z,19.23
2018-01-03T15:20:11.148Z,19.24
2018-01-03T15:23:13.036Z,19.24
2018-01-03T15:26:14.923Z,19.24
2018-01-03T15:29:16.851Z,19.25
2018-01-03T15:32:18.819Z,19.26
2018-01-03T15:35:20.878Z,19.27
2018-01-03T15:38:22.863Z,19.28
2018-01-03T15:41:24.811Z,19.28
2018-01-03T15:44:26.778Z,19.28
2018-01-03T15:47:28.725Z,19.28
2018-01-03T15:50:30.664Z,19.23
2018-01-03T15:53:32.594Z,19.26
2018-01-03T15:56:34.514Z,19.26
2018-01-03T15:59:36.400Z,19.27
2018-01-03T16:02:38.368Z,19.26
2018-01-03T16:05:40.230Z,19.27
2018-01-03T16:08:42.116Z,19.27
2018-01-03T16:11:43.970Z,19.29
2018-01-03T16:14:45.927Z,19.34
2018-01-03T16:17:47.900Z,19.37
2018-01-03T16:20:50.056Z,19.39
2018-01-03T16:23:52.124Z,19.42
2018-01-03T16:26:54.039Z,19.05
2018-01-03T16:29:56.051Z,19.49
2018-01-03T16:32:58.027Z,19.48
2018-01-03T16:35:59.963Z,19.47
2018-01-03T16:39:01.934Z,19.47
2018-01-03T16:42:03.903Z,19.47
2018-01-03T16:45:05.810Z,19.48
2018-01-03T16:48:07.827Z,19.49
2018-01-03T16:51:09.810Z,19.47
2018-01-03T16:54:11.795Z,19.48
2018-01-03T16:57:14.132Z,19.49
2018-01-03T17:00:16.051Z,19.49
2018-01-03T17:03:17.967Z,19.47
2018-01-03T17:06:20.287Z,19.45
2018-01-03T17:09:22.320Z,19.43
2018-01-03T17:12:24.246Z,19.43
2018-01-03T17:15:26.159Z,19.41
2018-01-03T17:18:28.139Z,19.40
2018-01-03T17:21:30.063Z,19.39
2018-01-03T17:24:32.899Z,19.39
2018-01-03T17:27:34.811Z,19.37
2018-01-03T17:30:36.770Z,19.42
2018-01-03T17:33:38.684Z,19.41
2018-01-03T17:36:40.938Z,19.40
2018-01-03T17:39:42.894Z,19.41
2018-01-03T17:42:44.819Z,19.39
2018-01-03T17:45:46.725Z,19.41
2018-01-03T17:48:48.688Z,19.41
2018-01-03T17:51:50.615Z,19.41
2018-01-03T17:54:52.527Z,19.44
2018-01-03T17:57:54.522Z,19.47
2018-01-03T18:00:56.474Z,19.50
2018-01-03T18:03:58.411Z,19.51
2018-01-03T18:07:00.412Z,19.53
2018-01-03T18:10:02.461Z,19.53
2018-01-03T18:13:04.387Z,19.53
2018-01-03T18:16:06.293Z,19.54
2018-01-03T18:19:08.308Z,19.55
2018-01-03T18:22:10.258Z,19.58
2018-01-03T18:25:12.200Z,19.56
2018-01-03T18:28:14.099Z,19.51
2018-01-03T18:31:15.995Z,19.49
2018-01-03T18:34:17.959Z,19.47
2018-01-03T18:37:19.868Z,19.46
2018-01-03T18:40:21.800Z,19.46
2018-01-03T18:43:24.766Z,19.47
2018-01-03T18:46:26.678Z,19.47
2018-01-03T18:49:28.666Z,19.46
2018-01-03T18:52:30.593Z,19.47
2018-01-03T18:55:33.456Z,19.45
2018-01-03T18:58:35.611Z,19.43
2018-01-03T19:01:37.587Z,19.43
2018-01-03T19:04:39.479Z,19.43
2018-01-03T19:07:41.404Z,19.41
2018-01-03T19:10:43.328Z,19.41
2018-01-03T19:13:45.318Z,19.40
2018-01-03T19:16:47.319Z,19.45
2018-01-03T19:19:49.530Z,19.47
2018-01-03T19:22:51.527Z,19.49
2018-01-03T19:25:53.517Z,19.52
2018-01-03T19:28:55.419Z,19.58
2018-01-03T19:31:57.383Z,19.50
2018-01-03T19:34:59.296Z,19.48
2018-01-03T19:38:01.199Z,19.48
2018-01-03T19:41:03.227Z,19.49
2018-01-03T19:44:05.103Z,19.47
2018-01-03T19:47:07.034Z,19.47
2018-01-03T19:50:08.922Z,19.51
2018-01-03T19:53:10.823Z,19.43
2018-01-03T19:56:12.827Z,19.41
2018-01-03T19:59:14.739Z,19.42
2018-01-03T20:02:16.703Z,19.43
2018-01-03T20:05:18.818Z,19.44
2018-01-03T20:08:20.759Z,19.44
2018-01-03T20:11:22.767Z,19.44
2018-01-03T20:14:24.751Z,19.44
2018-01-03T20:17:26.674Z,19.83
2018-01-03T20:20:28.688Z,19.67
2018-01-03T20:23:30.643Z,19.56
2018-01-03T20:26:32.556Z,19.54
2018-01-03T20:29:34.781Z,19.50
2018-01-03T20:32:36.749Z,19.49
2018-01-03T20:35:38.671Z,19.47
2018-01-03T20:38:40.654Z,19.45
2018-01-03T20:41:42.596Z,19.44
2018-01-03T20:44:44.555Z,19.44
2018-01-03T20:47:46.494Z,19.42
2018-01-03T20:50:48.491Z,19.41
2018-01-03T20:53:50.391Z,19.40
2018-01-03T20:56:52.284Z,19.39
2018-01-03T20:59:54.198Z,19.37
2018-01-03T21:02:56.140Z,19.36
2018-01-03T21:05:58.091Z,19.35
2018-01-03T21:09:00.015Z,19.36
2018-01-03T21:12:01.931Z,19.36
2018-01-03T21:15:03.851Z,19.37
2018-01-03T21:18:05.779Z,19.48
2018-01-03T21:21:07.999Z,19.44
2018-01-03T21:24:09.882Z,19.28
2018-01-03T21:27:11.823Z,19.19
2018-01-03T21:30:13.699Z,19.15
2018-01-03T21:33:15.638Z,19.10
2018-01-03T21:36:17.540Z,19.08
2018-01-03T21:39:19.547Z,19.04
2018-01-03T21:42:21.417Z,19.02
2018-01-03T21:45:23.404Z,19.00
2018-01-03T21:48:25.258Z,18.97
2018-01-03T21:51:27.183Z,18.95
2018-01-03T21:54:29.070Z,18.92
2018-01-03T21:57:30.981Z,18.90
2018-01-03T22:00:32.920Z,18.87
2018-01-03T22:03:34.962Z,18.85
2018-01-03T22:06:36.843Z,18.82
2018-01-03T22:09:38.703Z,18.81
2018-01-03T22:12:40.578Z,18.77
2018-01-03T22:15:42.425Z,18.77
2018-01-03T22:18:44.307Z,18.76
2018-01-03T22:21:46.203Z,18.74
2018-01-03T22:24:48.080Z,18.72
2018-01-03T22:27:49.959Z,18.70
2018-01-03T22:30:52.126Z,18.67
2018-01-03T22:33:53.995Z,18.67
2018-01-03T22:36:55.854Z,18.65
2018-01-03T22:39:57.714Z,18.63
2018-01-03T22:42:59.915Z,18.62
2018-01-03T22:46:01.775Z,18.60
2018-01-03T22:49:03.692Z,18.58
2018-01-03T22:52:05.561Z,18.57
2018-01-03T22:55:07.430Z,18.55
2018-01-03T22:58:09.287Z,18.53
2018-01-03T23:01:11.171Z,18.53
2018-01-03T23:04:13.059Z,18.51
2018-01-03T23:07:14.923Z,18.50
2018-01-03T23:10:16.812Z,18.49
2018-01-03T23:13:18.663Z,18.47
2018-01-03T23:16:20.548Z,18.45
2018-01-03T23:19:22.425Z,18.44
2018-01-03T23:22:24.280Z,18.43
2018-01-03T23:25:26.207Z,18.41
2018-01-03T23:28:28.072Z,18.40
2018-01-03T23:31:29.960Z,18.38
2018-01-03T23:34:31.849Z,18.37
2018-01-03T23:37:33.738Z,18.35
2018-01-03T23:40:35.590Z,18.35
2018-01-03T23:43:37.491Z,18.33
2018-01-03T23:46:39.356Z,18.32
2018-01-03T23:49:41.247Z,18.33
2018-01-03T23:52:43.108Z,18.30
2018-01-03T23:55:44.985Z,18.28
2018-01-03T23:58:46.836Z,18.27
